Time;durP1;ratioP1;P1;durP2;ratioP2;P2;SDS_P1;SDS_P2;PMS_P1;PMS_P2;Temp;Humidity;BMP_temperature;BMP_pressure;BME280_temperature;BME280_humidity;BME280_pressure;Samples;Min_cycle;Max_cycle;Signal;HPM_P1;HPM_P2
2022/05/13 00:00:38;;;;;;;6.37;1.80;;;20.00;99.90;;;;;;1897057;75;21141;-80
2022/05/13 00:03:48;;;;;;;5.62;1.70;;;19.80;99.90;;;;;;1894924;75;21087;-78
2022/05/13 00:06:39;;;;;;;8.95;2.00;;;19.70;99.90;;;;;;1914048;75;21161;-78
2022/05/13 00:10:00;;;;;;;3.33;1.77;;;19.80;99.90;;;;;;1908929;75;21372;-78
2022/05/13 00:12:51;;;;;;;6.70;1.70;;;19.70;99.90;;;;;;1907938;75;21131;-78
2022/05/13 00:15:44;;;;;;;6.05;2.22;;;19.70;99.90;;;;;;1907477;75;21067;-79
2022/05/13 00:18:36;;;;;;;5.97;1.95;;;19.60;99.90;;;;;;1918549;75;21092;-78
2022/05/13 00:21:27;;;;;;;5.08;1.80;;;19.60;99.90;;;;;;1917673;75;21059;-78
2022/05/13 00:24:19;;;;;;;8.13;2.20;;;19.60;99.90;;;;;;1915419;75;21333;-78
2022/05/13 00:27:10;;;;;;;8.60;2.37;;;19.60;99.90;;;;;;1902356;75;21063;-79
2022/05/13 00:30:02;;;;;;;7.10;2.05;;;19.50;99.90;;;;;;1907653;75;21128;-78
2022/05/13 00:32:54;;;;;;;5.92;2.37;;;19.50;99.90;;;;;;1894503;75;21125;-79
2022/05/13 00:35:46;;;;;;;4.62;1.80;;;19.40;99.90;;;;;;1906495;75;21061;-78
2022/05/13 00:38:37;;;;;;;7.17;2.20;;;19.40;99.90;;;;;;1896211;75;21065;-78
2022/05/13 00:44:09;;;;;;;6.03;2.00;;;19.40;99.90;;;;;;1943580;72;22114;-78
2022/05/13 00:47:19;;;;;;;10.70;2.27;;;19.40;99.90;;;;;;1911482;75;21025;-78
2022/05/13 00:50:31;;;;;;;7.92;1.92;;;19.40;99.90;;;;;;1911875;75;21129;-78
2022/05/13 00:53:22;;;;;;;5.42;1.75;;;19.30;99.90;;;;;;1906190;75;21128;-78
2022/05/13 00:56:31;;;;;;;6.95;1.90;;;19.40;99.90;;;;;;1895557;75;21047;-78
2022/05/13 00:59:26;;;;;;;7.97;1.90;;;19.30;99.90;;;;;;1915182;75;21129;-79
2022/05/13 01:02:18;;;;;;;6.00;2.10;;;19.30;99.90;;;;;;1910443;75;21096;-79
2022/05/13 01:05:12;;;;;;;5.67;2.08;;;19.20;99.90;;;;;;1895660;75;21282;-78
2022/05/13 01:08:06;;;;;;;5.40;1.67;;;19.30;99.90;;;;;;1900142;75;21150;-79
2022/05/13 01:10:59;;;;;;;7.08;1.80;;;19.20;99.90;;;;;;1909609;75;21194;-78
2022/05/13 01:13:53;;;;;;;7.37;1.80;;;19.20;99.90;;;;;;1910083;75;21106;-78
2022/05/13 01:22:43;;;;;;;6.92;2.00;;;19.10;99.90;;;;;;1923851;72;22222;-78
2022/05/13 01:25:55;;;;;;;6.65;1.87;;;19.10;99.90;;;;;;1898461;74;21152;-78
2022/05/13 01:29:05;;;;;;;7.75;1.90;;;19.00;99.90;;;;;;1896422;74;21209;-78
2022/05/13 01:31:56;;;;;;;4.22;1.90;;;19.00;99.90;;;;;;1900293;74;21067;-78
2022/05/13 01:35:08;;;;;;;5.97;1.70;;;19.10;99.90;;;;;;1899406;74;21624;-78
2022/05/13 01:38:00;;;;;;;5.67;1.60;;;18.90;99.90;;;;;;1894090;74;21089;-78
2022/05/13 01:40:51;;;;;;;5.15;1.80;;;18.90;99.90;;;;;;1895936;74;21137;-78
2022/05/13 01:43:45;;;;;;;4.90;2.15;;;18.90;99.90;;;;;;1897965;74;21206;-78
2022/05/13 01:46:36;;;;;;;4.33;1.90;;;18.80;99.90;;;;;;1894310;74;21242;-78
2022/05/13 01:49:27;;;;;;;4.53;1.70;;;18.70;99.90;;;;;;1895446;74;21239;-78
2022/05/13 01:52:19;;;;;;;7.17;2.25;;;18.70;99.90;;;;;;1909217;74;21106;-78
2022/05/13 01:55:11;;;;;;;6.62;1.98;;;18.70;99.90;;;;;;1906150;74;21466;-78
2022/05/13 01:58:04;;;;;;;3.42;1.70;;;18.60;99.90;;;;;;1902873;74;21157;-78
2022/05/13 02:00:57;;;;;;;7.60;2.05;;;18.60;99.90;;;;;;1896494;74;21070;-78
2022/05/13 02:03:49;;;;;;;4.10;2.15;;;18.50;99.90;;;;;;1902554;74;21090;-78
2022/05/13 02:06:40;;;;;;;6.53;1.87;;;18.50;99.90;;;;;;1898942;74;21166;-78
2022/05/13 02:09:32;;;;;;;6.50;2.00;;;18.40;99.90;;;;;;1900244;74;21590;-78
2022/05/13 02:12:24;;;;;;;6.17;1.87;;;18.30;99.90;;;;;;1902556;74;21098;-78
2022/05/13 02:15:15;;;;;;;3.35;1.80;;;18.30;99.90;;;;;;1899024;74;21654;-78
2022/05/13 02:18:08;;;;;;;8.35;2.40;;;18.20;99.90;;;;;;1889947;74;21073;-78
2022/05/13 02:21:00;;;;;;;5.45;2.20;;;18.20;99.90;;;;;;1891290;74;21717;-78
2022/05/13 02:23:51;;;;;;;3.70;2.20;;;18.20;99.90;;;;;;1892845;74;21124;-78
2022/05/13 02:26:42;;;;;;;6.72;2.10;;;18.10;99.90;;;;;;1890715;74;21116;-78
2022/05/13 02:29:34;;;;;;;5.67;2.05;;;18.10;99.90;;;;;;1897179;74;21223;-80
2022/05/13 02:32:25;;;;;;;6.78;2.20;;;18.00;99.90;;;;;;1905265;74;21099;-79
2022/05/13 02:35:16;;;;;;;4.85;2.05;;;18.00;99.90;;;;;;1904920;74;21058;-78
2022/05/13 02:38:08;;;;;;;6.45;2.30;;;17.90;99.90;;;;;;1893818;74;21181;-78
2022/05/13 02:41:13;;;;;;;5.12;2.10;;;17.90;99.90;;;;;;1894230;74;21711;-78
2022/05/13 02:44:06;;;;;;;5.85;2.08;;;17.80;99.90;;;;;;1901116;74;21161;-78
2022/05/13 02:46:58;;;;;;;7.70;2.58;;;17.70;99.90;;;;;;1900491;74;21115;-78
2022/05/13 02:52:30;;;;;;;4.33;2.05;;;17.60;99.90;;;;;;1934182;72;22199;-78
2022/05/13 02:58:22;;;;;;;7.42;2.60;;;17.50;99.90;;;;;;1946993;72;22305;-78
2022/05/13 03:01:33;;;;;;;5.60;2.35;;;17.60;99.90;;;;;;1906962;75;21177;-78
2022/05/13 03:04:42;;;;;;;5.87;2.35;;;17.60;99.90;;;;;;1889025;75;21097;-78
2022/05/13 03:10:12;;;;;;;4.22;2.40;;;17.60;99.90;;;;;;1950972;72;22245;-78
2022/05/13 03:13:23;;;;;;;5.65;2.62;;;17.60;99.90;;;;;;1937022;73;21143;-79
2022/05/13 03:16:33;;;;;;;5.62;2.90;;;17.50;99.90;;;;;;1936187;73;21482;-79
2022/05/13 03:19:24;;;;;;;7.75;2.98;;;17.50;99.90;;;;;;1923740;74;21097;-78
2022/05/13 03:22:35;;;;;;;5.10;2.87;;;17.60;99.90;;;;;;1923975;74;21093;-78
2022/05/13 03:25:27;;;;;;;6.50;3.08;;;17.60;99.90;;;;;;1924031;74;21152;-78
2022/05/13 03:28:18;;;;;;;4.10;2.70;;;17.50;99.90;;;;;;1924062;74;21482;-78
2022/05/13 03:31:10;;;;;;;5.53;2.62;;;17.50;99.90;;;;;;1930641;73;21175;-79
2022/05/13 03:34:01;;;;;;;5.80;2.55;;;17.50;99.90;;;;;;1946971;73;21054;-78
2022/05/13 03:36:54;;;;;;;7.42;3.02;;;17.50;99.90;;;;;;1946831;73;21318;-79
2022/05/13 03:39:46;;;;;;;7.15;3.00;;;17.40;99.90;;;;;;1924028;74;21108;-79
2022/05/13 03:45:19;;;;;;;3.87;2.80;;;17.40;99.90;;;;;;1969711;72;22149;-78
2022/05/13 03:48:29;;;;;;;7.47;2.83;;;17.30;99.90;;;;;;1923286;73;21120;-77
2022/05/13 03:51:39;;;;;;;5.15;2.67;;;17.20;99.90;;;;;;1917574;75;21072;-77
2022/05/13 03:54:30;;;;;;;4.95;2.85;;;17.20;99.90;;;;;;1920542;73;21113;-78
2022/05/13 03:57:40;;;;;;;3.67;2.72;;;17.20;99.90;;;;;;1931364;73;21620;-77
2022/05/13 04:00:32;;;;;;;4.90;3.10;;;17.20;99.90;;;;;;1917577;75;21173;-78
2022/05/13 04:03:23;;;;;;;5.03;2.90;;;17.20;99.90;;;;;;1917493;75;21055;-77
2022/05/13 04:09:25;;;;;;;5.10;3.02;;;17.10;99.90;;;;;;1917704;75;21161;-77
2022/05/13 04:18:23;;;;;;;5.20;3.20;;;17.20;99.90;;;;;;1902792;75;21122;-80
2022/05/13 04:21:36;;;;;;;6.97;3.22;;;17.20;99.90;;;;;;1898279;75;21047;-77
2022/05/13 04:24:27;;;;;;;5.58;3.00;;;17.20;99.90;;;;;;1908369;75;21054;-78
2022/05/13 04:30:16;;;;;;;7.95;3.45;;;17.10;99.90;;;;;;1971414;72;22145;-78
2022/05/13 04:33:27;;;;;;;5.17;3.20;;;17.10;99.90;;;;;;1928995;73;21560;-77
2022/05/13 04:36:37;;;;;;;7.72;3.62;;;16.90;99.90;;;;;;1918810;73;21085;-78
2022/05/13 04:39:28;;;;;;;6.70;3.12;;;16.90;99.90;;;;;;1943084;73;21067;-78
2022/05/13 04:42:50;;;;;;;6.37;3.20;;;16.90;99.90;;;;;;1936740;73;21063;-78
2022/05/13 04:45:43;;;;;;;6.12;3.52;;;16.90;99.90;;;;;;1929421;73;21072;-79
2022/05/13 04:48:34;;;;;;;5.35;3.10;;;16.80;99.90;;;;;;1928428;73;21109;-78
2022/05/13 04:51:26;;;;;;;7.30;3.70;;;16.80;99.90;;;;;;1946784;73;21051;-79
2022/05/13 04:54:17;;;;;;;6.40;2.72;;;16.70;99.90;;;;;;1917640;75;21114;-78
2022/05/13 04:57:09;;;;;;;6.03;2.98;;;16.60;99.90;;;;;;1930509;73;21042;-78
2022/05/13 05:02:39;;;;;;;8.00;3.15;;;16.50;99.90;;;;;;1953290;72;22188;-78
2022/05/13 05:05:48;;;;;;;6.72;2.80;;;16.50;99.90;;;;;;1938705;73;21084;-77
2022/05/13 05:08:58;;;;;;;5.17;2.83;;;16.50;99.90;;;;;;1917727;75;21047;-79
2022/05/13 05:11:51;;;;;;;5.60;3.20;;;16.50;99.90;;;;;;1917391;75;21130;-78
2022/05/13 05:17:40;;;;;;;7.28;2.80;;;16.60;99.90;;;;;;1951418;72;22410;-78
2022/05/13 05:20:50;;;;;;;5.22;2.55;;;16.50;99.90;;;;;;1933569;73;21137;-79
2022/05/13 05:24:00;;;;;;;6.28;2.72;;;16.50;99.90;;;;;;1942697;73;21138;-78
2022/05/13 05:26:52;;;;;;;6.72;3.02;;;16.50;99.90;;;;;;1917441;75;21063;-79
2022/05/13 05:30:03;;;;;;;8.45;2.75;;;16.50;99.90;;;;;;1919452;73;21125;-78
2022/05/13 05:32:55;;;;;;;6.33;3.00;;;16.60;99.90;;;;;;1929457;73;21043;-78
2022/05/13 05:35:46;;;;;;;5.40;2.67;;;16.50;99.90;;;;;;1931798;73;21117;-78
2022/05/13 05:38:38;;;;;;;8.45;2.65;;;16.60;99.90;;;;;;1922558;73;21120;-78
2022/05/13 05:41:29;;;;;;;7.72;2.83;;;16.70;99.90;;;;;;1917609;73;21645;-78
2022/05/13 05:44:21;;;;;;;10.23;3.10;;;16.80;99.90;;;;;;1927954;73;21218;-78
2022/05/13 05:47:21;;;;;;;5.33;2.83;;;16.80;99.90;;;;;;1918524;73;21101;-78
2022/05/13 05:50:15;;;;;;;10.72;3.50;;;16.90;99.90;;;;;;1929485;73;21059;-78
2022/05/13 05:53:07;;;;;;;10.65;3.42;;;16.90;99.90;;;;;;1924056;73;21054;-78
2022/05/13 05:59:09;;;;;;;10.32;3.45;;;17.10;99.90;;;;;;1908117;73;21063;-78
2022/05/13 06:02:01;;;;;;;7.00;2.92;;;17.00;99.90;;;;;;1917107;75;21098;-78
2022/05/13 06:04:52;;;;;;;7.00;3.45;;;17.10;99.90;;;;;;1939777;73;21123;-78
2022/05/13 06:07:45;;;;;;;8.80;3.65;;;17.10;99.90;;;;;;1917606;73;21537;-78
2022/05/13 06:13:16;;;;;;;6.05;3.12;;;17.40;99.90;;;;;;1955997;72;22258;-79
2022/05/13 06:19:04;;;;;;;13.28;3.83;;;17.50;99.90;;;;;;1942764;72;22306;-79
2022/05/13 06:22:15;;;;;;;9.28;3.80;;;17.50;99.90;;;;;;1927862;74;21079;-79
2022/05/13 06:28:16;;;;;;;8.45;3.50;;;17.30;99.90;;;;;;1958865;72;22198;-79
2022/05/13 06:31:26;;;;;;;10.08;3.75;;;17.30;99.90;;;;;;1922918;73;21175;-79
2022/05/13 06:34:36;;;;;;;6.17;3.25;;;17.30;99.90;;;;;;1917087;75;21121;-79
2022/05/13 06:37:28;;;;;;;7.00;3.40;;;17.30;99.90;;;;;;1918030;73;21120;-79
2022/05/13 06:40:38;;;;;;;10.55;3.70;;;17.40;99.90;;;;;;1924629;73;21135;-79
2022/05/13 06:43:29;;;;;;;6.35;3.00;;;17.30;99.90;;;;;;1941670;73;21055;-79
2022/05/13 06:46:21;;;;;;;7.33;3.37;;;17.30;99.90;;;;;;1918258;73;21153;-79
2022/05/13 06:49:14;;;;;;;7.33;3.50;;;17.40;99.90;;;;;;1920932;73;21037;-79
2022/05/13 06:52:06;;;;;;;5.33;3.12;;;17.40;99.90;;;;;;1946870;73;21094;-79
2022/05/13 06:57:37;;;;;;;8.50;3.60;;;17.50;99.90;;;;;;1953962;72;22244;-79
2022/05/13 07:03:28;;;;;;;9.48;3.10;;;17.70;99.90;;;;;;1934587;72;22968;-78
2022/05/13 07:06:38;;;;;;;7.83;3.12;;;17.70;99.90;;;;;;1885983;75;21104;-78
2022/05/13 07:09:48;;;;;;;6.30;3.27;;;17.70;99.90;;;;;;1892887;75;21298;-79
2022/05/13 07:12:40;;;;;;;7.75;3.52;;;17.80;99.90;;;;;;1876387;75;21063;-79
2022/05/13 07:15:49;;;;;;;6.08;3.20;;;17.90;99.90;;;;;;1893230;75;21502;-79
2022/05/13 07:18:42;;;;;;;8.33;2.90;;;17.80;99.90;;;;;;1886466;75;21117;-79
2022/05/13 07:21:33;;;;;;;5.37;2.10;;;17.80;99.90;;;;;;1894392;75;21048;-80
2022/05/13 07:24:25;;;;;;;7.53;2.80;;;17.70;99.90;;;;;;1896482;75;21104;-79
2022/05/13 07:27:16;;;;;;;12.40;4.45;;;17.80;99.90;;;;;;1883657;75;21146;-79
2022/05/13 07:32:47;;;;;;;8.10;2.95;;;18.00;99.90;;;;;;1936752;72;22252;-79
2022/05/13 07:35:58;;;;;;;6.10;2.55;;;18.00;99.90;;;;;;1923276;73;21038;-80
2022/05/13 07:42:17;;;;;;;7.17;2.70;;;18.10;99.90;;;;;;1927353;73;21132;-79
2022/05/13 07:48:06;;;;;;;7.37;2.55;;;18.30;99.90;;;;;;1934248;72;22256;-78
2022/05/13 07:51:16;;;;;;;9.20;2.60;;;18.40;99.90;;;;;;1896804;74;21106;-78
2022/05/13 07:54:26;;;;;;;7.55;2.52;;;18.60;99.90;;;;;;1902730;75;21185;-78
2022/05/13 07:57:17;;;;;;;4.37;2.10;;;18.70;99.90;;;;;;1890518;75;21123;-78
2022/05/13 08:03:08;;;;;;;5.65;2.33;;;18.80;99.90;;;;;;1946918;72;22185;-79
2022/05/13 08:06:18;;;;;;;5.87;2.83;;;18.90;99.90;;;;;;1909975;75;21102;-78
2022/05/13 08:09:28;;;;;;;6.35;2.58;;;18.90;99.90;;;;;;1904121;75;21200;-79
2022/05/13 08:12:20;;;;;;;5.83;2.47;;;18.90;99.90;;;;;;1916709;75;21086;-78
2022/05/13 08:18:09;;;;;;;4.87;1.85;;;19.10;99.90;;;;;;1943029;72;22244;-78
2022/05/13 08:21:22;;;;;;;5.15;2.20;;;19.30;99.90;;;;;;1915532;75;21164;-78
2022/05/13 08:24:31;;;;;;;5.30;2.30;;;19.30;99.90;;;;;;1895001;75;21146;-78
2022/05/13 08:30:09;;;;;;;6.75;2.52;;;19.30;99.90;;;;;;1947057;72;22602;-79
2022/05/13 08:36:05;;;;;;;8.08;2.35;;;19.60;99.90;;;;;;1948772;72;22134;-78
2022/05/13 08:39:15;;;;;;;6.53;2.35;;;19.80;99.90;;;;;;1895490;75;21403;-79
2022/05/13 08:42:35;;;;;;;6.85;1.95;;;20.00;99.90;;;;;;1916051;75;21083;-79
2022/05/13 08:48:07;;;;;;;9.80;2.37;;;20.30;99.90;;;;;;1958070;72;22650;-80
2022/05/13 08:54:01;;;;;;;8.33;1.87;;;20.50;99.90;;;;;;1958337;72;22233;-78
2022/05/13 08:57:12;;;;;;;5.70;1.67;;;20.60;99.90;;;;;;1901454;75;21133;-79
2022/05/13 09:03:04;;;;;;;5.00;2.12;;;20.80;99.90;;;;;;1941769;72;22111;-79
2022/05/13 09:06:17;;;;;;;4.72;1.50;;;21.00;99.90;;;;;;1891282;75;21440;-79
2022/05/13 09:09:29;;;;;;;5.15;2.02;;;21.20;99.90;;;;;;1901755;75;21074;-79
2022/05/13 09:17:45;;;;;;;5.33;1.50;;;21.70;99.90;;;;;;1971033;72;22168;-79
2022/05/13 09:20:58;;;;;;;6.62;2.22;;;21.80;99.90;;;;;;1924147;73;21168;-79
2022/05/13 09:24:08;;;;;;;7.40;2.12;;;22.10;99.90;;;;;;1917582;75;21184;-79
2022/05/13 09:27:00;;;;;;;5.05;1.72;;;22.10;99.90;;;;;;1920033;73;21055;-79
2022/05/13 09:32:48;;;;;;;7.60;1.67;;;22.30;99.90;;;;;;1945007;72;22229;-78
2022/05/13 09:36:01;;;;;;;3.55;1.50;;;22.40;99.90;;;;;;1882914;75;21039;-78
2022/05/13 09:39:21;;;;;;;7.53;1.87;;;22.50;99.90;;;;;;1900904;75;21108;-78
2022/05/13 09:45:25;;;;;;;6.03;1.62;;;22.60;99.90;;;;;;1951788;72;22102;-78
2022/05/13 09:48:38;;;;;;;2.92;1.47;;;22.80;99.90;;;;;;1906799;75;21066;-78
2022/05/13 09:51:55;;;;;;;5.28;1.95;;;22.80;99.90;;;;;;1888301;75;21046;-78
2022/05/13 09:54:49;;;;;;;5.78;1.70;;;22.80;99.90;;;;;;1905496;75;21094;-78
2022/05/13 09:58:02;;;;;;;4.70;1.45;;;22.90;99.90;;;;;;1906618;75;21123;-78
2022/05/13 10:03:37;;;;;;;3.72;1.42;;;23.20;99.90;;;;;;1964294;72;22114;-78
2022/05/13 10:06:48;;;;;;;2.77;1.50;;;23.20;99.90;;;;;;1930800;73;21070;-79
2022/05/13 10:16:17;;;;;;;5.90;1.50;;;23.30;99.90;;;;;;1902336;75;21118;-78
2022/05/13 10:19:32;;;;;;;2.92;1.10;;;23.30;99.90;;;;;;1883409;75;21109;-78
2022/05/13 10:22:27;;;;;;;2.87;1.40;;;23.30;99.90;;;;;;1894900;75;21055;-78
2022/05/13 10:25:44;;;;;;;3.22;1.60;;;23.40;99.90;;;;;;1891478;75;21364;-79
2022/05/13 10:28:40;;;;;;;6.00;1.20;;;23.60;99.90;;;;;;1884697;75;21635;-79
2022/05/13 10:31:35;;;;;;;3.92;1.55;;;23.50;98.90;;;;;;1889220;75;21209;-78
2022/05/13 10:34:31;;;;;;;3.08;1.55;;;23.60;99.90;;;;;;1904015;75;21126;-78
2022/05/13 10:37:26;;;;;;;4.15;1.20;;;23.60;99.70;;;;;;1897080;75;21171;-79
2022/05/13 10:40:20;;;;;;;2.52;1.15;;;23.70;98.20;;;;;;1867928;75;21259;-78
2022/05/13 10:43:16;;;;;;;5.00;2.40;;;23.70;99.00;;;;;;1884736;75;21132;-78
2022/05/13 10:48:51;;;;;;;3.22;1.60;;;23.70;99.90;;;;;;1943529;72;22112;-78
2022/05/13 10:52:05;;;;;;;3.95;1.45;;;23.80;99.90;;;;;;1917541;75;21087;-79
2022/05/13 10:58:00;;;;;;;3.95;1.32;;;23.50;99.90;;;;;;1926392;72;22601;-78
2022/05/13 11:01:18;;;;;;;7.25;2.00;;;23.60;99.90;;;;;;1916231;73;22397;-78
2022/05/13 11:04:31;;;;;;;6.87;1.87;;;23.50;99.90;;;;;;1915058;75;21054;-78
2022/05/13 11:10:08;;;;;;;5.17;1.82;;;23.60;99.90;;;;;;1941235;72;22617;-78
2022/05/13 11:13:21;;;;;;;5.17;1.80;;;23.60;99.90;;;;;;1911536;75;21034;-78
2022/05/13 11:16:38;;;;;;;4.75;1.65;;;23.60;99.90;;;;;;1921897;74;21070;-78
2022/05/13 11:19:34;;;;;;;4.12;2.02;;;23.70;99.90;;;;;;1918814;74;21141;-78
2022/05/13 11:22:48;;;;;;;6.62;1.85;;;23.70;99.90;;;;;;1915446;74;21069;-78
2022/05/13 11:25:57;;;;;;;5.83;1.90;;;23.70;99.90;;;;;;1916558;74;21184;-78
2022/05/13 11:29:00;;;;;;;6.53;2.02;;;23.80;99.90;;;;;;1908326;75;21129;-78
2022/05/13 11:35:02;;;;;;;7.83;1.95;;;24.00;99.90;;;;;;1947864;72;22132;-78
2022/05/13 11:38:17;;;;;;;6.70;1.90;;;24.00;99.90;;;;;;1891571;75;21051;-78
2022/05/13 11:44:07;;;;;;;4.12;1.87;;;24.00;99.90;;;;;;1943789;72;22165;-78
2022/05/13 11:47:22;;;;;;;5.08;2.00;;;24.00;99.90;;;;;;1917268;75;21101;-78
2022/05/13 11:50:33;;;;;;;6.95;1.98;;;24.00;99.90;;;;;;1895469;75;21149;-80
2022/05/13 11:53:47;;;;;;;3.12;1.52;;;24.00;99.90;;;;;;1895330;75;21140;-80
2022/05/13 11:57:25;;;;;;;5.90;1.77;;;24.00;99.90;;;;;;1895691;75;21153;-80
2022/05/13 12:00:28;;;;;;;8.68;1.80;;;24.20;99.90;;;;;;1895172;75;21183;-80
2022/05/13 12:03:21;;;;;;;7.80;2.00;;;24.10;99.90;;;;;;1888208;75;21583;-80
2022/05/13 12:08:59;;;;;;;3.40;1.62;;;24.20;99.90;;;;;;1938790;72;22177;-80
2022/05/13 12:14:53;;;;;;;5.75;1.67;;;24.40;99.90;;;;;;1942167;72;22122;-80
2022/05/13 12:18:06;;;;;;;4.25;1.87;;;24.30;99.90;;;;;;1926058;74;21113;-80
2022/05/13 12:23:58;;;;;;;6.08;1.37;;;24.50;99.90;;;;;;1952017;72;22114;-80
2022/05/13 12:27:14;;;;;;;4.35;1.60;;;24.50;99.90;;;;;;1884423;76;21065;-80
2022/05/13 12:30:33;;;;;;;5.40;1.62;;;24.50;99.90;;;;;;1902687;75;21047;-80
2022/05/13 12:33:42;;;;;;;3.30;1.47;;;24.70;99.90;;;;;;1903374;75;21171;-80
2022/05/13 12:40:18;;;;;;;3.40;1.42;;;24.70;99.90;;;;;;1895358;75;21164;-80
2022/05/13 12:46:17;;;;;;;4.33;1.40;;;24.60;99.90;;;;;;1964627;72;22110;-78
2022/05/13 12:49:30;;;;;;;4.90;1.42;;;24.70;99.90;;;;;;1930469;73;21110;-80
2022/05/13 12:55:22;;;;;;;4.83;1.52;;;24.90;99.00;;;;;;1951841;72;22192;-80
2022/05/13 12:58:32;;;;;;;5.45;1.55;;;24.80;98.50;;;;;;1916462;75;21641;-80
2022/05/13 13:01:45;;;;;;;5.03;1.70;;;25.00;97.70;;;;;;1903143;75;21563;-80
2022/05/13 13:04:39;;;;;;;9.08;1.20;;;25.00;97.80;;;;;;1917464;75;21599;-80
2022/05/13 13:07:51;;;;;;;13.60;1.60;;;24.90;97.50;;;;;;1910342;75;21112;-80
2022/05/13 13:13:32;;;;;;;4.58;1.70;;;25.10;98.00;;;;;;1961641;72;22359;-80
2022/05/13 13:19:24;;;;;;;5.10;1.20;;;25.20;96.00;;;;;;1970272;72;22128;-80
2022/05/13 13:22:36;;;;;;;8.70;1.82;;;25.30;95.70;;;;;;1917565;75;21104;-81
2022/05/13 13:25:49;;;;;;;6.50;2.17;;;25.30;95.30;;;;;;1923161;73;21112;-80
2022/05/13 13:28:43;;;;;;;10.25;4.85;;;25.50;95.70;;;;;;1938716;73;21106;-81
2022/05/13 13:34:36;;;;;;;7.33;1.47;;;25.40;95.30;;;;;;1943474;72;22129;-80
2022/05/13 13:37:46;;;;;;;6.20;1.50;;;25.50;95.20;;;;;;1931742;73;21088;-80
2022/05/13 13:40:56;;;;;;;3.85;1.90;;;25.70;95.60;;;;;;1901152;74;21172;-80
2022/05/13 13:43:54;;;;;;;7.35;1.60;;;25.50;95.50;;;;;;1926408;74;21125;-81
2022/05/13 13:47:06;;;;;;;7.65;1.80;;;25.50;96.00;;;;;;1935615;74;21216;-81
2022/05/13 13:50:08;;;;;;;6.22;1.90;;;25.50;96.00;;;;;;1935530;74;21499;-80
2022/05/13 13:53:00;;;;;;;4.12;1.57;;;25.80;95.90;;;;;;1832320;77;21207;-81
2022/05/13 13:58:41;;;;;;;4.53;1.62;;;26.50;95.10;;;;;;1942457;72;22180;-79
2022/05/13 14:01:54;;;;;;;7.03;1.77;;;26.50;95.00;;;;;;1903306;75;21089;-80
2022/05/13 14:05:10;;;;;;;7.50;1.57;;;26.80;94.90;;;;;;1894375;75;21183;-80
2022/05/13 14:08:05;;;;;;;6.28;1.85;;;27.00;95.00;;;;;;1910559;75;21120;-79
2022/05/13 14:14:00;;;;;;;5.72;1.95;;;27.40;94.10;;;;;;1958127;72;22605;-80
2022/05/13 14:19:53;;;;;;;5.45;1.98;;;27.70;93.10;;;;;;1955520;72;22593;-80
2022/05/13 14:23:18;;;;;;;5.17;2.37;;;27.70;92.40;;;;;;1896906;75;21475;-80
2022/05/13 14:26:28;;;;;;;7.72;2.12;;;27.50;93.70;;;;;;1899184;75;21602;-80
2022/05/13 14:29:20;;;;;;;5.17;1.95;;;27.60;93.90;;;;;;1895089;75;21079;-80
2022/05/13 14:32:35;;;;;;;4.20;1.82;;;27.70;93.40;;;;;;1915141;75;21019;-80
2022/05/13 14:35:31;;;;;;;4.37;1.70;;;27.20;93.80;;;;;;1896569;75;21075;-80
2022/05/13 14:42:04;;;;;;;5.12;1.57;;;27.10;93.50;;;;;;1889740;75;21280;-82
2022/05/13 14:44:58;;;;;;;8.10;1.63;;;27.10;93.00;;;;;;1895041;75;21054;-81
2022/05/13 14:47:51;;;;;;;4.72;1.60;;;27.10;93.40;;;;;;1907951;75;21373;-81
2022/05/13 14:51:00;;;;;;;4.42;1.80;;;27.30;92.30;;;;;;1900466;75;21104;-81
2022/05/13 14:53:55;;;;;;;3.87;1.85;;;27.90;91.40;;;;;;1884962;76;21097;-81
2022/05/13 14:56:50;;;;;;;4.42;2.05;;;28.40;91.10;;;;;;1906434;75;21517;-80
2022/05/13 14:59:44;;;;;;;5.58;1.70;;;28.50;90.90;;;;;;1914862;75;21102;-80
2022/05/13 15:02:44;;;;;;;6.78;2.05;;;28.50;90.50;;;;;;1917384;75;21120;-81
2022/05/13 15:08:46;;;;;;;6.25;2.25;;;28.30;90.20;;;;;;1945286;72;22127;-80
2022/05/13 15:11:59;;;;;;;5.08;1.82;;;27.50;91.60;;;;;;1897709;75;21608;-80
2022/05/13 15:17:55;;;;;;;5.03;2.45;;;28.00;92.20;;;;;;1948213;72;22161;-80
2022/05/13 15:21:06;;;;;;;6.50;2.50;;;27.60;92.70;;;;;;1910908;75;21098;-80
2022/05/13 15:24:16;;;;;;;4.42;2.40;;;27.50;93.80;;;;;;1906880;75;21168;-80
2022/05/13 15:27:10;;;;;;;5.22;2.33;;;27.70;94.00;;;;;;1904783;75;21220;-80
2022/05/13 15:30:20;;;;;;;4.12;2.42;;;28.10;93.30;;;;;;1898707;75;21189;-80
2022/05/13 15:33:12;;;;;;;4.70;2.20;;;28.20;93.30;;;;;;1900192;75;21084;-80
2022/05/13 15:36:03;;;;;;;6.03;2.12;;;27.90;93.80;;;;;;1896667;75;21044;-80
2022/05/13 15:38:57;;;;;;;6.53;2.45;;;28.00;94.10;;;;;;1906717;75;21118;-80
2022/05/13 15:41:48;;;;;;;4.62;2.10;;;28.50;94.20;;;;;;1908905;75;21043;-80
2022/05/13 15:44:40;;;;;;;7.35;2.58;;;28.80;93.40;;;;;;1898342;75;21494;-80
2022/05/13 15:47:33;;;;;;;5.22;2.40;;;28.80;93.40;;;;;;1898648;75;21106;-79
2022/05/13 15:53:36;;;;;;;9.75;2.60;;;28.20;94.40;;;;;;1914937;75;21142;-80
2022/05/13 15:56:30;;;;;;;4.08;2.40;;;27.80;94.70;;;;;;1909760;75;21096;-79
2022/05/13 15:59:22;;;;;;;5.08;2.42;;;27.30;96.20;;;;;;1897063;75;21187;-80
2022/05/13 16:02:13;;;;;;;4.50;2.45;;;26.90;96.60;;;;;;1898047;75;21087;-80
2022/05/13 16:07:44;;;;;;;5.97;2.58;;;27.40;96.80;;;;;;1938154;72;22094;-80
2022/05/13 16:10:55;;;;;;;4.30;2.33;;;27.70;96.50;;;;;;1897960;75;21027;-81
2022/05/13 16:14:08;;;;;;;7.17;2.75;;;28.20;95.70;;;;;;1917469;75;21057;-81
2022/05/13 16:17:04;;;;;;;6.37;2.50;;;28.20;95.90;;;;;;1895506;75;21068;-81
2022/05/13 16:22:52;;;;;;;4.12;2.37;;;27.20;97.20;;;;;;1933149;72;22258;-81
2022/05/13 16:26:05;;;;;;;11.75;3.10;;;27.80;97.00;;;;;;1917472;74;21031;-80
2022/05/13 16:29:15;;;;;;;5.55;2.90;;;27.70;97.20;;;;;;1917920;74;21046;-78
2022/05/13 16:32:09;;;;;;;4.95;2.70;;;27.30;97.80;;;;;;1918693;74;21109;-81
2022/05/13 16:38:02;;;;;;;4.97;2.70;;;26.30;99.90;;;;;;1942941;72;22157;-81
2022/05/13 16:43:54;;;;;;;5.67;3.37;;;26.10;99.90;;;;;;1942460;72;22123;-80
2022/05/13 16:47:05;;;;;;;7.12;2.80;;;26.00;99.90;;;;;;1900601;75;21095;-80
2022/05/13 16:52:56;;;;;;;5.42;2.80;;;26.30;99.90;;;;;;1951938;72;22666;-80
2022/05/13 16:58:48;;;;;;;6.97;3.12;;;26.50;99.90;;;;;;1944645;72;22190;-80
2022/05/13 17:01:58;;;;;;;5.72;3.20;;;26.40;99.90;;;;;;1909993;75;21466;-80
2022/05/13 17:05:13;;;;;;;4.08;3.08;;;26.50;99.90;;;;;;1908270;74;21101;-81
2022/05/13 17:08:07;;;;;;;7.00;2.87;;;26.70;99.90;;;;;;1870238;76;21556;-80
2022/05/13 17:17:35;;;;;;;4.10;3.10;;;27.10;99.90;;;;;;1910625;75;21146;-80
2022/05/13 17:20:27;;;;;;;5.20;2.83;;;26.90;99.90;;;;;;1915908;75;21094;-80
2022/05/13 17:23:19;;;;;;;4.65;2.85;;;26.80;99.90;;;;;;1900793;75;21149;-80
2022/05/13 17:28:54;;;;;;;5.30;2.80;;;26.50;99.90;;;;;;1948793;72;22252;-80
2022/05/13 17:32:06;;;;;;;4.20;2.90;;;26.60;99.90;;;;;;1943163;73;21047;-80
2022/05/13 17:38:03;;;;;;;3.98;2.75;;;26.40;99.90;;;;;;1932940;72;22672;-81
2022/05/13 17:41:12;;;;;;;3.40;3.10;;;26.40;99.90;;;;;;1868687;76;21094;-82
2022/05/13 17:44:23;;;;;;;5.58;3.33;;;26.30;99.90;;;;;;1887626;75;21136;-81
2022/05/13 17:50:00;;;;;;;4.60;3.02;;;26.20;99.90;;;;;;1946476;72;22227;-80
2022/05/13 17:53:13;;;;;;;5.30;2.70;;;26.20;99.90;;;;;;1919641;73;21062;-81
2022/05/13 17:56:23;;;;;;;4.97;3.17;;;26.10;99.90;;;;;;1935768;73;21022;-80
2022/05/13 17:59:17;;;;;;;3.80;2.70;;;26.00;99.90;;;;;;1917529;75;21213;-80
2022/05/13 18:05:13;;;;;;;4.65;3.10;;;25.40;99.90;;;;;;1936808;72;22306;-80
2022/05/13 18:08:24;;;;;;;4.92;3.33;;;25.20;99.90;;;;;;1898235;75;21122;-80
2022/05/13 18:11:35;;;;;;;4.33;3.30;;;25.00;99.90;;;;;;1909966;74;21077;-80
2022/05/13 18:14:27;;;;;;;5.70;3.12;;;25.00;99.90;;;;;;1918707;74;21106;-80
2022/05/13 18:17:37;;;;;;;5.85;3.40;;;24.80;99.90;;;;;;1894743;75;21063;-80
2022/05/13 18:23:08;;;;;;;5.95;3.55;;;24.60;99.90;;;;;;1925591;72;22127;-79
2022/05/13 18:28:57;;;;;;;4.08;3.35;;;24.40;99.90;;;;;;1942143;72;22227;-79
2022/05/13 18:32:11;;;;;;;4.62;3.58;;;24.30;99.90;;;;;;1912202;74;21159;-79
2022/05/13 18:38:01;;;;;;;5.85;3.58;;;24.10;99.90;;;;;;1953976;72;22194;-80
2022/05/13 18:47:20;;;;;;;3.47;3.10;;;23.90;99.90;;;;;;1913900;75;21604;-79
2022/05/13 18:53:13;;;;;;;5.12;3.60;;;23.80;99.90;;;;;;1944367;72;22248;-79
2022/05/13 18:56:27;;;;;;;4.95;3.50;;;23.80;99.90;;;;;;1940353;73;21209;-80
2022/05/13 18:59:37;;;;;;;5.92;3.50;;;23.80;99.90;;;;;;1919715;73;21092;-81
2022/05/13 19:02:28;;;;;;;4.62;3.80;;;23.70;99.90;;;;;;1925963;73;21597;-80
2022/05/13 19:05:38;;;;;;;5.22;3.90;;;23.60;99.90;;;;;;1919000;73;21094;-80
2022/05/13 19:11:08;;;;;;;4.85;4.17;;;23.50;99.90;;;;;;1941817;72;22142;-80
2022/05/13 19:14:17;;;;;;;4.42;3.95;;;23.40;99.90;;;;;;1919651;74;21047;-79
2022/05/13 19:17:27;;;;;;;6.47;4.15;;;23.30;99.90;;;;;;1926959;74;21083;-77